»·PEaware :: SWA4361 KOAK-KPDX

SWA4361 :: KOAK-KPDX

FLIGHT INFORMATION

Flight Status: Arrived
Operator:
Southwest Airlines
More flights by this operator :: More flights under this callsign
Pilot: Ben F. (2808)
Aircraft: BOEING 737-700
(B737)
More flights by this aircraft type
Origin: KOAK Metro Oakland Intl
United States
Destination: KPDX Portland Intl
United States
More flights between these airports :: More routes between these airports
Route: OAK4 OAK GRTFL MACHU TMBRS2
File this flight plan on PilotEdge
Remarks:
Altitude:
(Current/Filed)
38,000ft
Speed:
(Current/Filed)
456kts
Departed: 24-Aug-19 08:36 AM
Arrived: 24-Aug-19 09:53 AM
Distance/Time
Traveled:
472nm/1:17
Distance/Time
To Go:
Arrived

Flight Plot

Page will automatically refresh every two minutes.

Flight plan parsing failed; only flown route is shown


Map Options




Map Legend


Flown Route
Filed Route
Departure Airport
Arrival Airport
Navaid (VOR, NDB)
Fix

Horizontal Profiles

Position Reports

Time Latitude Longitude Heading Altitude Ground
Speed
24-Aug-19 08:21 37.709554 -122.213025 121 13ft 0kts
24-Aug-19 08:22 37.709554 -122.213025 121 13ft 0kts
24-Aug-19 08:23 37.709554 -122.213025 121 13ft 0kts
24-Aug-19 08:24 37.709554 -122.213025 121 13ft 0kts
24-Aug-19 08:25 37.709554 -122.213025 121 13ft 0kts
24-Aug-19 08:26 37.709554 -122.213025 121 13ft 0kts
24-Aug-19 08:27 37.709647 -122.213223 116 13ft 2kts
24-Aug-19 08:28 37.710024 -122.213784 182 13ft 2kts
24-Aug-19 08:29 37.710324 -122.213599 217 13ft 0kts
24-Aug-19 08:30 37.710323 -122.213600 217 13ft 0kts
24-Aug-19 08:31 37.708769 -122.215235 255 13ft 10kts
24-Aug-19 08:32 37.705071 -122.215793 129 13ft 25kts
24-Aug-19 08:33 37.702382 -122.213635 194 13ft 0kts
24-Aug-19 08:34 37.702208 -122.215317 310 14ft 22kts
24-Aug-19 08:35 37.723725 -122.246408 311 1383ft 155kts
24-Aug-19 08:36 37.756889 -122.293287 310 3377ft 228kts
24-Aug-19 08:37 37.822545 -122.323659 7 6314ft 293kts
24-Aug-19 08:38 37.906315 -122.309300 7 9984ft 311kts
24-Aug-19 08:39 37.997603 -122.293377 8 12314ft 363kts
24-Aug-19 08:40 38.100382 -122.275537 8 15143ft 380kts
24-Aug-19 08:41 38.206284 -122.257052 7 17859ft 390kts
24-Aug-19 08:42 38.315962 -122.237830 7 20054ft 404kts
24-Aug-19 08:43 38.430213 -122.238661 354 21979ft 419kts
24-Aug-19 08:44 38.547650 -122.251444 354 23737ft 430kts
24-Aug-19 08:45 38.668395 -122.264272 354 25390ft 438kts
24-Aug-19 08:46 38.790878 -122.277126 354 26919ft 446kts
24-Aug-19 08:47 38.915552 -122.290218 354 28365ft 452kts
24-Aug-19 08:48 39.041581 -122.303484 353 29636ft 458kts
24-Aug-19 08:49 39.169609 -122.317028 353 30920ft 461kts
24-Aug-19 08:50 39.296883 -122.330539 353 32463ft 457kts
24-Aug-19 08:51 39.423463 -122.344022 353 33979ft 454kts
24-Aug-19 08:52 39.549233 -122.357450 353 35371ft 452kts
24-Aug-19 08:53 39.674317 -122.370876 353 36576ft 451kts
24-Aug-19 08:55 39.799035 -122.384302 352 37696ft 448kts
24-Aug-19 08:56 39.923801 -122.397787 352 37989ft 449kts
24-Aug-19 08:57 40.047630 -122.411205 352 37992ft 447kts
24-Aug-19 08:58 40.171730 -122.424722 352 37991ft 447kts
24-Aug-19 08:59 40.296080 -122.438298 352 37990ft 447kts
24-Aug-19 09:00 40.419726 -122.451864 352 37984ft 447kts
24-Aug-19 09:01 40.543630 -122.465501 351 37982ft 446kts
24-Aug-19 09:02 40.667730 -122.479210 351 37999ft 446kts
24-Aug-19 09:03 40.791254 -122.492909 351 38028ft 446kts
24-Aug-19 09:04 40.915017 -122.506683 351 38055ft 445kts
24-Aug-19 09:05 41.038602 -122.520489 351 38077ft 445kts
24-Aug-19 09:06 41.161982 -122.534326 351 38096ft 444kts
24-Aug-19 09:07 41.285129 -122.548147 351 38110ft 444kts
24-Aug-19 09:08 41.408147 -122.562072 350 38110ft 443kts
24-Aug-19 09:09 41.531019 -122.575963 351 38102ft 443kts
24-Aug-19 09:10 41.654662 -122.583965 352 38099ft 444kts
24-Aug-19 09:11 41.777817 -122.591848 352 38100ft 443kts
24-Aug-19 09:12 41.901346 -122.599868 352 38100ft 444kts
24-Aug-19 09:12 42.004073 -122.606609 352 38098ft 443kts
24-Aug-19 09:14 42.147172 -122.616055 351 38091ft 440kts
24-Aug-19 09:15 42.269411 -122.624183 351 38075ft 440kts
24-Aug-19 09:15 42.371314 -122.631004 351 38072ft 440kts
24-Aug-19 09:16 42.493663 -122.639216 351 38080ft 439kts
24-Aug-19 09:17 42.615437 -122.647361 351 38087ft 438kts
24-Aug-19 09:18 42.737072 -122.655588 351 38074ft 437kts
24-Aug-19 09:19 42.858621 -122.663842 350 38077ft 437kts
24-Aug-19 09:20 42.979633 -122.672083 350 38078ft 434kts
24-Aug-19 09:21 43.100567 -122.680337 350 38079ft 434kts
24-Aug-19 09:22 43.220864 -122.688568 350 38084ft 433kts
24-Aug-19 09:23 43.341173 -122.696891 349 38090ft 432kts
24-Aug-19 09:24 43.460858 -122.705149 349 38091ft 431kts
24-Aug-19 09:25 43.580553 -122.713409 349 38091ft 430kts
24-Aug-19 09:26 43.700247 -122.721741 349 38094ft 429kts
24-Aug-19 09:27 43.819609 -122.730036 349 37370ft 426kts
24-Aug-19 09:28 43.938324 -122.738303 349 34462ft 428kts
24-Aug-19 09:29 44.057176 -122.746632 349 31584ft 425kts
24-Aug-19 09:30 44.173567 -122.752025 353 29306ft 415kts
24-Aug-19 09:31 44.287173 -122.740119 355 27051ft 404kts
24-Aug-19 09:32 44.397764 -122.728831 355 24823ft 393kts
24-Aug-19 09:33 44.505774 -122.718051 356 22614ft 384kts
24-Aug-19 09:34 44.609960 -122.707678 356 20849ft 366kts
24-Aug-19 09:35 44.711348 -122.697495 356 18758ft 361kts
24-Aug-19 09:36 44.810337 -122.687522 357 16804ft 351kts
24-Aug-19 09:37 44.906561 -122.677840 357 14849ft 342kts
24-Aug-19 09:38 44.997348 -122.668695 357 13693ft 311kts
24-Aug-19 09:39 45.082837 -122.660006 358 11866ft 301kts
24-Aug-19 09:40 45.164255 -122.651702 359 10448ft 290kts
24-Aug-19 09:41 45.244246 -122.645480 350 9108ft 280kts
24-Aug-19 09:42 45.315653 -122.679012 336 8068ft 269kts
24-Aug-19 09:43 45.384140 -122.716782 337 6880ft 260kts
24-Aug-19 09:44 45.451709 -122.754507 336 5894ft 257kts
24-Aug-19 09:45 45.516813 -122.792261 336 4606ft 245kts
24-Aug-19 09:46 45.576051 -122.829775 326 3709ft 222kts
24-Aug-19 09:47 45.628875 -122.850896 12 2992ft 195kts
24-Aug-19 09:48 45.658581 -122.803279 97 2645ft 187kts
24-Aug-19 09:49 45.640872 -122.739451 117 1862ft 154kts
24-Aug-19 09:50 45.621383 -122.688900 118 1087ft 138kts
24-Aug-19 09:51 45.603071 -122.642001 119 395ft 133kts
24-Aug-19 09:52 45.588860 -122.605273 118 39ft 29kts
24-Aug-19 09:53 45.587879 -122.600281 82 39ft 6kts
24-Aug-19 09:54 45.590557 -122.601060 30 39ft 21kts
24-Aug-19 09:55 45.590759 -122.597664 120 39ft 0kts
24-Aug-19 09:56 45.590002 -122.597957 208 39ft 0kts

Navigation Log

Ident Type
Flight plan parsing failed, navigation log unavailable